Time;durP1;ratioP1;P1;durP2;ratioP2;P2;SDS_P1;SDS_P2;PMS_P1;PMS_P2;Temp;Humidity;BMP_temperature;BMP_pressure;BME280_temperature;BME280_humidity;BME280_pressure;Samples;Min_cycle;Max_cycle;Signal;HPM_P1;HPM_P2
2023/06/10 00:01:49;;;;;;;;;;;;;;;;;;5111716;28;20459;-69
2023/06/10 00:08:15;;;;;;;;;;;;;;;;;;5091821;27;19912;-69
2023/06/10 00:11:54;;;;;;;;;;;;;;;;;;5091648;27;19917;-69
2023/06/10 00:14:20;;;;;;;;;;;;;;;;;;5090928;28;19999;-69
2023/06/10 00:18:13;;;;;;;;;;;;;;;;;;5152918;27;20311;-69
2023/06/10 00:20:39;;;;;;;;;;;;;;;;;;5152604;27;19912;-68
2023/06/10 00:23:08;;;;;;;;;;;;;;;;;;5152943;27;19914;-69
2023/06/10 00:25:34;;;;;;;;;;;;;;;;;;5152754;27;19907;-69
2023/06/10 00:28:00;;;;;;;;;;;;;;;;;;5152460;27;19950;-70
2023/06/10 00:30:26;;;;;;;;;;;;;;;;;;5152629;27;20279;-69
2023/06/10 00:32:52;;;;;;;;;;;;;;;;;;5152805;27;20247;-69
2023/06/10 00:37:51;;;;;;;;;;;;;;;;;;5132990;27;20002;-69
2023/06/10 00:40:17;;;;;;;;;;;;;;;;;;5132165;28;19958;-69
2023/06/10 00:44:03;;;;;;;;;;;;;;;;;;5153267;27;19998;-69
2023/06/10 00:46:32;;;;;;;;;;;;;;;;;;5152773;27;19946;-69
2023/06/10 00:51:26;;;;;;;;;;;;;;;;;;5091420;28;19923;-69
2023/06/10 00:53:52;;;;;;;;;;;;;;;;;;5091583;28;20261;-68
2023/06/10 00:57:16;;;;;;;;;;;;;;;;;;5091418;27;19975;-68
2023/06/10 00:59:41;;;;;;;;;;;;;;;;;;5091385;28;19999;-69
2023/06/10 01:02:09;;;;;;;;;;;;;;;;;;5090883;28;19962;-69
2023/06/10 01:04:36;;;;;;;;;;;;;;;;;;5091696;28;20015;-69
2023/06/10 01:09:25;;;;;;;;;;;;;;;;;;5091064;27;19917;-69
2023/06/10 01:11:51;;;;;;;;;;;;;;;;;;5091359;28;20023;-69
2023/06/10 01:14:17;;;;;;;;;;;;;;;;;;5091240;28;19908;-69
2023/06/10 01:16:45;;;;;;;;;;;;;;;;;;5089545;28;20345;-69
2023/06/10 01:19:11;;;;;;;;;;;;;;;;;;5091106;28;19908;-69
2023/06/10 01:21:54;;;;;;;;;;;;;;;;;;5092180;27;19913;-69
2023/06/10 01:28:27;;;;;;;;;;;;;;;;;;5092160;27;19922;-69
2023/06/10 01:30:53;;;;;;;;;;;;;;;;;;5090998;28;20350;-70
2023/06/10 01:35:45;;;;;;;;;;;;;;;;;;5091685;28;20277;-69
2023/06/10 01:38:11;;;;;;;;;;;;;;;;;;5091025;28;20007;-69
2023/06/10 01:40:37;;;;;;;;;;;;;;;;;;5091322;28;19994;-69
2023/06/10 01:43:03;;;;;;;;;;;;;;;;;;5091298;28;19908;-69
2023/06/10 01:45:44;;;;;;;;;;;;;;;;;;5091082;28;19917;-69
2023/06/10 01:51:25;;;;;;;;;;;;;;;;;;5091111;27;19927;-70
2023/06/10 01:53:51;;;;;;;;;;;;;;;;;;5091505;28;20358;-71
2023/06/10 01:56:19;;;;;;;;;;;;;;;;;;5091490;28;19908;-71
2023/06/10 01:59:33;;;;;;;;;;;;;;;;;;5071200;28;19923;-69
2023/06/10 02:03:49;;;;;;;;;;;;;;;;;;5092033;27;19923;-70
2023/06/10 02:06:15;;;;;;;;;;;;;;;;;;5089705;28;20003;-69
2023/06/10 02:08:41;;;;;;;;;;;;;;;;;;5091251;28;19909;-70
2023/06/10 02:11:07;;;;;;;;;;;;;;;;;;5091330;28;19956;-70
2023/06/10 02:15:26;;;;;;;;;;;;;;;;;;5153491;27;19915;-70
2023/06/10 02:18:14;;;;;;;;;;;;;;;;;;5091574;27;19922;-69
2023/06/10 02:21:12;;;;;;;;;;;;;;;;;;5091127;27;19923;-71
2023/06/10 02:23:38;;;;;;;;;;;;;;;;;;5091550;28;20346;-71
2023/06/10 02:26:04;;;;;;;;;;;;;;;;;;5091544;28;19915;-70
2023/06/10 02:28:30;;;;;;;;;;;;;;;;;;5091006;28;19952;-71
2023/06/10 02:30:56;;;;;;;;;;;;;;;;;;5091298;28;19999;-69
2023/06/10 02:38:02;;;;;;;;;;;;;;;;;;5091741;28;19916;-71
2023/06/10 02:40:28;;;;;;;;;;;;;;;;;;5091001;28;20003;-71
2023/06/10 02:42:54;;;;;;;;;;;;;;;;;;5091305;28;19954;-69
2023/06/10 02:47:32;;;;;;;;;;;;;;;;;;5091107;28;19939;-70
2023/06/10 02:49:58;;;;;;;;;;;;;;;;;;5091367;28;20453;-70
2023/06/10 02:52:24;;;;;;;;;;;;;;;;;;5091492;28;19914;-70
2023/06/10 02:55:26;;;;;;;;;;;;;;;;;;5091540;27;19922;-70
2023/06/10 02:57:52;;;;;;;;;;;;;;;;;;5091356;28;20310;-69
2023/06/10 03:00:20;;;;;;;;;;;;;;;;;;5091512;28;19954;-70
2023/06/10 03:02:46;;;;;;;;;;;;;;;;;;5090925;28;20429;-70
2023/06/10 03:05:12;;;;;;;;;;;;;;;;;;5091150;28;19909;-71
2023/06/10 03:07:39;;;;;;;;;;;;;;;;;;5091167;28;19948;-71
2023/06/10 03:10:05;;;;;;;;;;;;;;;;;;5090776;28;19908;-70
2023/06/10 03:12:31;;;;;;;;;;;;;;;;;;5089829;28;20284;-70
2023/06/10 03:14:57;;;;;;;;;;;;;;;;;;5090940;28;19916;-71
2023/06/10 03:19:51;;;;;;;;;;;;;;;;;;5092038;27;19919;-69
2023/06/10 03:22:17;;;;;;;;;;;;;;;;;;5091366;28;20007;-69
2023/06/10 03:24:43;;;;;;;;;;;;;;;;;;5090891;28;19908;-69
2023/06/10 03:27:10;;;;;;;;;;;;;;;;;;5091425;28;19919;-69
2023/06/10 03:29:36;;;;;;;;;;;;;;;;;;5091000;28;20346;-69
2023/06/10 03:32:02;;;;;;;;;;;;;;;;;;5091693;28;19909;-69
2023/06/10 03:34:29;;;;;;;;;;;;;;;;;;5091163;28;19915;-69
2023/06/10 03:36:55;;;;;;;;;;;;;;;;;;5090668;28;19920;-69
2023/06/10 03:45:05;;;;;;;;;;;;;;;;;;5091264;27;19916;-69
2023/06/10 03:47:32;;;;;;;;;;;;;;;;;;5091500;28;20014;-68
2023/06/10 03:49:58;;;;;;;;;;;;;;;;;;5090071;28;19914;-69
2023/06/10 03:53:55;;;;;;;;;;;;;;;;;;5091835;27;19923;-68
2023/06/10 03:56:21;;;;;;;;;;;;;;;;;;5091182;28;19912;-68
2023/06/10 04:03:41;;;;;;;;;;;;;;;;;;5091399;27;19917;-68
2023/06/10 04:07:52;;;;;;;;;;;;;;;;;;5092116;27;20360;-69
2023/06/10 04:10:18;;;;;;;;;;;;;;;;;;5091321;28;20387;-69
2023/06/10 04:12:44;;;;;;;;;;;;;;;;;;5090845;28;19908;-69
2023/06/10 04:15:10;;;;;;;;;;;;;;;;;;5091765;28;20368;-68
2023/06/10 04:17:36;;;;;;;;;;;;;;;;;;5091072;28;20273;-70
2023/06/10 04:20:03;;;;;;;;;;;;;;;;;;5090726;28;19988;-70
2023/06/10 04:22:29;;;;;;;;;;;;;;;;;;5091160;28;19931;-69
2023/06/10 04:24:55;;;;;;;;;;;;;;;;;;5091314;28;20368;-70
2023/06/10 04:27:21;;;;;;;;;;;;;;;;;;5090748;28;20512;-70
2023/06/10 04:29:47;;;;;;;;;;;;;;;;;;5090953;28;19912;-69
2023/06/10 04:32:13;;;;;;;;;;;;;;;;;;5089602;28;19952;-70
2023/06/10 04:34:49;;;;;;;;;;;;;;;;;;5091077;27;19922;-70
2023/06/10 04:37:45;;;;;;;;;;;;;;;;;;5153401;27;20010;-70
2023/06/10 04:40:11;;;;;;;;;;;;;;;;;;5152622;27;20342;-71
2023/06/10 04:42:37;;;;;;;;;;;;;;;;;;5134337;27;20012;-70
2023/06/10 04:47:51;;;;;;;;;;;;;;;;;;5091431;27;19922;-69
2023/06/10 04:50:17;;;;;;;;;;;;;;;;;;5091344;28;19916;-69
2023/06/10 04:56:07;;;;;;;;;;;;;;;;;;5091051;27;19923;-69
2023/06/10 04:58:33;;;;;;;;;;;;;;;;;;5091416;28;19995;-68
2023/06/10 05:00:59;;;;;;;;;;;;;;;;;;5091024;28;19909;-69
2023/06/10 05:05:01;;;;;;;;;;;;;;;;;;5092212;27;19923;-69
2023/06/10 05:07:27;;;;;;;;;;;;;;;;;;5091387;28;20007;-71
2023/06/10 05:09:53;;;;;;;;;;;;;;;;;;5089563;28;20361;-69
2023/06/10 05:12:19;;;;;;;;;;;;;;;;;;5091194;28;19908;-70
2023/06/10 05:14:45;;;;;;;;;;;;;;;;;;5089880;28;19908;-69
2023/06/10 05:17:12;;;;;;;;;;;;;;;;;;5090693;28;19913;-70
2023/06/10 05:19:38;;;;;;;;;;;;;;;;;;5091064;28;19913;-70
2023/06/10 05:23:17;;;;;;;;;;;;;;;;;;5091347;27;19917;-70
2023/06/10 05:25:43;;;;;;;;;;;;;;;;;;5091408;28;20011;-70
2023/06/10 05:28:26;;;;;;;;;;;;;;;;;;5153459;27;20375;-69
2023/06/10 05:30:52;;;;;;;;;;;;;;;;;;5152485;27;20263;-69
2023/06/10 05:35:27;;;;;;;;;;;;;;;;;;5112340;27;19920;-69
2023/06/10 05:39:29;;;;;;;;;;;;;;;;;;5091558;27;20383;-69
2023/06/10 05:41:55;;;;;;;;;;;;;;;;;;5091436;28;20007;-70
2023/06/10 05:49:54;;;;;;;;;;;;;;;;;;5092176;27;19923;-69
2023/06/10 05:55:09;;;;;;;;;;;;;;;;;;5091437;27;19916;-69
2023/06/10 05:57:34;;;;;;;;;;;;;;;;;;5090908;28;19944;-69
2023/06/10 06:00:00;;;;;;;;;;;;;;;;;;5091198;28;19915;-70
2023/06/10 06:02:43;;;;;;;;;;;;;;;;;;5091842;27;19922;-69
2023/06/10 06:06:07;;;;;;;;;;;;;;;;;;5091168;27;19917;-71
2023/06/10 06:08:33;;;;;;;;;;;;;;;;;;5091419;28;20340;-70
2023/06/10 06:10:59;;;;;;;;;;;;;;;;;;5091332;28;19908;-70
2023/06/10 06:13:25;;;;;;;;;;;;;;;;;;5090910;28;19931;-70
2023/06/10 06:15:51;;;;;;;;;;;;;;;;;;5091154;28;20368;-70
2023/06/10 06:20:20;;;;;;;;;;;;;;;;;;5152582;27;20006;-70
2023/06/10 06:22:46;;;;;;;;;;;;;;;;;;5152968;27;19955;-70
2023/06/10 06:25:12;;;;;;;;;;;;;;;;;;5152952;27;19915;-70
2023/06/10 06:30:48;;;;;;;;;;;;;;;;;;5071469;28;19923;-69
2023/06/10 06:33:15;;;;;;;;;;;;;;;;;;5070720;28;19912;-69
2023/06/10 06:38:45;;;;;;;;;;;;;;;;;;5091808;27;19923;-69
2023/06/10 06:41:11;;;;;;;;;;;;;;;;;;5089651;28;20351;-69
2023/06/10 06:46:24;;;;;;;;;;;;;;;;;;5091460;27;19938;-69
2023/06/10 06:48:50;;;;;;;;;;;;;;;;;;5090957;28;19918;-69
2023/06/10 06:51:16;;;;;;;;;;;;;;;;;;5091280;28;19908;-69
2023/06/10 06:55:06;;;;;;;;;;;;;;;;;;5091178;27;19912;-69
2023/06/10 07:03:32;;;;;;;;;;;;;;;;;;5153357;27;19911;-69
2023/06/10 07:05:58;;;;;;;;;;;;;;;;;;5152872;27;20014;-69
2023/06/10 07:08:23;;;;;;;;;;;;;;;;;;5152466;27;19911;-69
2023/06/10 07:12:56;;;;;;;;;;;;;;;;;;5091561;27;19917;-70
2023/06/10 07:15:22;;;;;;;;;;;;;;;;;;5090917;28;19920;-69
2023/06/10 07:19:17;;;;;;;;;;;;;;;;;;5091489;27;19917;-69
2023/06/10 07:21:42;;;;;;;;;;;;;;;;;;5091073;28;19999;-69
2023/06/10 07:24:08;;;;;;;;;;;;;;;;;;5091497;28;19908;-69
2023/06/10 07:28:42;;;;;;;;;;;;;;;;;;5091551;27;19923;-69
2023/06/10 07:31:08;;;;;;;;;;;;;;;;;;5090098;28;20011;-71
2023/06/10 07:36:00;;;;;;;;;;;;;;;;;;5111540;27;19913;-69
2023/06/10 07:38:26;;;;;;;;;;;;;;;;;;5112341;28;20002;-69
2023/06/10 07:41:57;;;;;;;;;;;;;;;;;;5092107;27;19917;-69
2023/06/10 07:46:46;;;;;;;;;;;;;;;;;;5153384;27;19911;-69
2023/06/10 07:51:27;;;;;;;;;;;;;;;;;;5091081;27;20410;-69
2023/06/10 07:56:09;;;;;;;;;;;;;;;;;;5092162;27;20263;-69
2023/06/10 07:58:35;;;;;;;;;;;;;;;;;;5090999;28;19999;-69
2023/06/10 08:01:26;;;;;;;;;;;;;;;;;;5071323;28;20394;-69
2023/06/10 08:04:28;;;;;;;;;;;;;;;;;;5152595;27;19915;-70
2023/06/10 08:06:54;;;;;;;;;;;;;;;;;;5153052;27;19918;-70
2023/06/10 08:13:30;;;;;;;;;;;;;;;;;;5111676;27;20414;-69
2023/06/10 08:15:56;;;;;;;;;;;;;;;;;;5111673;28;19912;-69
2023/06/10 08:18:22;;;;;;;;;;;;;;;;;;5111273;28;20330;-69
2023/06/10 08:20:48;;;;;;;;;;;;;;;;;;5110414;28;20286;-69
2023/06/10 08:23:14;;;;;;;;;;;;;;;;;;5111633;28;20376;-69
2023/06/10 08:25:39;;;;;;;;;;;;;;;;;;5111107;28;19912;-69
2023/06/10 08:28:05;;;;;;;;;;;;;;;;;;5111411;28;20007;-69
2023/06/10 08:30:31;;;;;;;;;;;;;;;;;;5111429;28;19915;-69
2023/06/10 08:32:57;;;;;;;;;;;;;;;;;;5110917;28;19923;-69
2023/06/10 08:37:37;;;;;;;;;;;;;;;;;;5091528;27;19934;-70
2023/06/10 08:43:46;;;;;;;;;;;;;;;;;;5091431;27;19922;-70
2023/06/10 08:46:12;;;;;;;;;;;;;;;;;;5089681;28;20002;-69
2023/06/10 08:48:38;;;;;;;;;;;;;;;;;;5091266;28;19909;-69
2023/06/10 08:51:03;;;;;;;;;;;;;;;;;;5091467;28;19938;-69
2023/06/10 08:53:29;;;;;;;;;;;;;;;;;;5090856;28;19915;-69
2023/06/10 08:55:55;;;;;;;;;;;;;;;;;;5091114;28;19913;-69
2023/06/10 08:58:21;;;;;;;;;;;;;;;;;;5091084;28;19909;-69
2023/06/10 09:00:47;;;;;;;;;;;;;;;;;;5090587;28;19944;-69
2023/06/10 09:03:13;;;;;;;;;;;;;;;;;;5090965;28;19924;-69
2023/06/10 09:05:39;;;;;;;;;;;;;;;;;;5090951;28;19909;-69
2023/06/10 09:08:05;;;;;;;;;;;;;;;;;;5090632;28;19934;-69
2023/06/10 09:10:31;;;;;;;;;;;;;;;;;;5090907;28;19914;-69
2023/06/10 09:15:17;;;;;;;;;;;;;;;;;;5111727;27;19916;-69
2023/06/10 09:17:43;;;;;;;;;;;;;;;;;;5111642;28;19912;-69
2023/06/10 09:20:09;;;;;;;;;;;;;;;;;;5111678;28;19954;-69
2023/06/10 09:22:35;;;;;;;;;;;;;;;;;;5111330;28;19944;-70
2023/06/10 09:25:00;;;;;;;;;;;;;;;;;;5111639;28;19999;-68
2023/06/10 09:27:26;;;;;;;;;;;;;;;;;;5111564;28;19919;-69
2023/06/10 09:29:53;;;;;;;;;;;;;;;;;;5111210;28;19908;-70
2023/06/10 09:32:19;;;;;;;;;;;;;;;;;;5111546;28;19915;-69
2023/06/10 09:34:45;;;;;;;;;;;;;;;;;;5111354;28;19916;-69
2023/06/10 09:37:13;;;;;;;;;;;;;;;;;;5109680;28;19908;-69
2023/06/10 09:39:39;;;;;;;;;;;;;;;;;;5111260;28;19915;-70
2023/06/10 09:42:05;;;;;;;;;;;;;;;;;;5111246;28;19912;-69
2023/06/10 09:44:31;;;;;;;;;;;;;;;;;;5110830;28;19915;-69
2023/06/10 09:46:59;;;;;;;;;;;;;;;;;;5111282;28;20008;-70
2023/06/10 09:49:25;;;;;;;;;;;;;;;;;;5110655;28;19912;-70
2023/06/10 09:51:51;;;;;;;;;;;;;;;;;;5111100;28;19908;-70
2023/06/10 09:54:18;;;;;;;;;;;;;;;;;;5110911;28;19946;-70
2023/06/10 09:56:44;;;;;;;;;;;;;;;;;;5110632;28;19912;-70
2023/06/10 09:59:10;;;;;;;;;;;;;;;;;;5110914;28;19908;-70
2023/06/10 10:01:36;;;;;;;;;;;;;;;;;;5110961;28;19912;-70
2023/06/10 10:04:02;;;;;;;;;;;;;;;;;;5110649;28;19908;-70
2023/06/10 10:06:28;;;;;;;;;;;;;;;;;;5110952;28;19961;-69
2023/06/10 10:08:54;;;;;;;;;;;;;;;;;;5111230;28;19912;-70
2023/06/10 10:11:23;;;;;;;;;;;;;;;;;;5110673;28;19912;-70
2023/06/10 10:13:50;;;;;;;;;;;;;;;;;;5109155;28;20283;-70
2023/06/10 10:16:16;;;;;;;;;;;;;;;;;;5110577;28;19916;-70
2023/06/10 10:18:41;;;;;;;;;;;;;;;;;;5110152;28;20004;-70
2023/06/10 10:21:07;;;;;;;;;;;;;;;;;;5110491;28;19915;-70
2023/06/10 10:23:33;;;;;;;;;;;;;;;;;;5110499;28;19909;-70
2023/06/10 10:25:59;;;;;;;;;;;;;;;;;;5099802;28;19909;-70
2023/06/10 10:28:26;;;;;;;;;;;;;;;;;;5096711;28;19918;-70
2023/06/10 10:30:52;;;;;;;;;;;;;;;;;;5096653;28;19909;-70
2023/06/10 10:33:18;;;;;;;;;;;;;;;;;;5096347;28;20261;-70
2023/06/10 10:35:45;;;;;;;;;;;;;;;;;;5095395;28;20292;-70
2023/06/10 10:38:11;;;;;;;;;;;;;;;;;;5096634;28;19923;-70
2023/06/10 10:40:37;;;;;;;;;;;;;;;;;;5096126;28;19908;-70
2023/06/10 10:43:03;;;;;;;;;;;;;;;;;;5096540;28;19908;-70
2023/06/10 10:45:29;;;;;;;;;;;;;;;;;;5096511;28;19908;-70
2023/06/10 10:47:56;;;;;;;;;;;;;;;;;;5096032;28;19916;-70
2023/06/10 10:50:22;;;;;;;;;;;;;;;;;;5096397;28;19908;-70
2023/06/10 10:52:48;;;;;;;;;;;;;;;;;;5095841;28;19934;-70
2023/06/10 10:55:14;;;;;;;;;;;;;;;;;;5096420;28;19996;-71
2023/06/10 10:57:40;;;;;;;;;;;;;;;;;;5096235;28;19909;-70
2023/06/10 11:00:06;;;;;;;;;;;;;;;;;;5095783;28;19912;-70
2023/06/10 11:02:31;;;;;;;;;;;;;;;;;;5096180;28;19960;-70
2023/06/10 11:04:57;;;;;;;;;;;;;;;;;;5096099;28;19994;-70
2023/06/10 11:07:23;;;;;;;;;;;;;;;;;;5095653;28;19915;-70
2023/06/10 11:09:49;;;;;;;;;;;;;;;;;;5096188;28;19908;-70
2023/06/10 11:12:15;;;;;;;;;;;;;;;;;;5096159;28;20006;-70
2023/06/10 11:14:41;;;;;;;;;;;;;;;;;;5095237;28;19946;-70
2023/06/10 11:17:07;;;;;;;;;;;;;;;;;;5095782;28;19908;-70
2023/06/10 11:19:34;;;;;;;;;;;;;;;;;;5095877;28;20000;-70
2023/06/10 11:22:00;;;;;;;;;;;;;;;;;;5095410;28;19963;-70
2023/06/10 11:24:26;;;;;;;;;;;;;;;;;;5095648;28;19916;-70
2023/06/10 11:26:52;;;;;;;;;;;;;;;;;;5095612;28;19912;-69
2023/06/10 11:29:20;;;;;;;;;;;;;;;;;;5093860;28;19909;-71
2023/06/10 11:31:46;;;;;;;;;;;;;;;;;;5095511;28;19919;-70
2023/06/10 11:34:12;;;;;;;;;;;;;;;;;;5095499;28;19920;-69
2023/06/10 11:36:40;;;;;;;;;;;;;;;;;;5094371;28;20000;-71
2023/06/10 11:39:06;;;;;;;;;;;;;;;;;;5095395;28;19912;-69
2023/06/10 11:41:32;;;;;;;;;;;;;;;;;;5094188;28;19908;-69
2023/06/10 11:43:58;;;;;;;;;;;;;;;;;;5094859;28;19961;-69
2023/06/10 11:46:26;;;;;;;;;;;;;;;;;;5095561;28;20283;-69
2023/06/10 11:48:52;;;;;;;;;;;;;;;;;;5095257;28;20364;-70
2023/06/10 11:51:18;;;;;;;;;;;;;;;;;;5093525;28;19909;-69
2023/06/10 11:53:44;;;;;;;;;;;;;;;;;;5095039;28;19923;-70
2023/06/10 11:56:10;;;;;;;;;;;;;;;;;;5094634;28;19999;-70
2023/06/10 11:58:36;;;;;;;;;;;;;;;;;;5095016;28;19989;-70
2023/06/10 12:01:02;;;;;;;;;;;;;;;;;;5094985;28;19916;-70
2023/06/10 12:03:28;;;;;;;;;;;;;;;;;;5094535;28;19998;-69
2023/06/10 12:05:54;;;;;;;;;;;;;;;;;;5094895;28;19908;-69
2023/06/10 12:08:20;;;;;;;;;;;;;;;;;;5094887;28;20403;-70
2023/06/10 12:10:46;;;;;;;;;;;;;;;;;;5094419;28;20379;-69
2023/06/10 12:13:12;;;;;;;;;;;;;;;;;;5094428;28;20053;-69
2023/06/10 12:15:38;;;;;;;;;;;;;;;;;;5094683;28;19916;-70
2023/06/10 12:18:04;;;;;;;;;;;;;;;;;;5094264;28;19908;-70
2023/06/10 12:20:30;;;;;;;;;;;;;;;;;;5094649;28;19912;-70
2023/06/10 12:22:56;;;;;;;;;;;;;;;;;;5094627;28;19923;-70
2023/06/10 12:25:22;;;;;;;;;;;;;;;;;;5094119;28;19915;-70
2023/06/10 12:27:47;;;;;;;;;;;;;;;;;;5094466;28;19989;-70
2023/06/10 12:30:13;;;;;;;;;;;;;;;;;;5094859;28;19908;-69
2023/06/10 12:32:40;;;;;;;;;;;;;;;;;;5093898;28;19904;-70
2023/06/10 12:35:06;;;;;;;;;;;;;;;;;;5094341;28;19916;-71
2023/06/10 12:37:33;;;;;;;;;;;;;;;;;;5094619;28;19999;-71
2023/06/10 12:39:59;;;;;;;;;;;;;;;;;;5093881;28;19915;-71
2023/06/10 12:42:25;;;;;;;;;;;;;;;;;;5094337;28;19938;-71
2023/06/10 12:44:51;;;;;;;;;;;;;;;;;;5094286;28;19943;-71
2023/06/10 12:47:17;;;;;;;;;;;;;;;;;;5093816;28;19915;-71
2023/06/10 12:49:43;;;;;;;;;;;;;;;;;;5093917;28;19908;-71
2023/06/10 12:52:09;;;;;;;;;;;;;;;;;;5094101;28;19962;-71
2023/06/10 12:54:35;;;;;;;;;;;;;;;;;;5093605;28;19920;-70
2023/06/10 12:57:01;;;;;;;;;;;;;;;;;;5093878;28;20045;-70
2023/06/10 12:59:28;;;;;;;;;;;;;;;;;;5093293;28;20053;-70
2023/06/10 13:01:54;;;;;;;;;;;;;;;;;;5092376;28;19953;-70
2023/06/10 13:04:20;;;;;;;;;;;;;;;;;;5093910;28;19908;-71
2023/06/10 13:06:46;;;;;;;;;;;;;;;;;;5093468;28;19912;-71
2023/06/10 13:09:12;;;;;;;;;;;;;;;;;;5094188;28;20006;-71
2023/06/10 13:11:38;;;;;;;;;;;;;;;;;;5093917;28;19954;-71
2023/06/10 13:14:06;;;;;;;;;;;;;;;;;;5093182;28;19959;-71
2023/06/10 13:16:32;;;;;;;;;;;;;;;;;;5093897;28;19908;-71
2023/06/10 13:18:58;;;;;;;;;;;;;;;;;;5093826;28;19954;-71
2023/06/10 13:21:24;;;;;;;;;;;;;;;;;;5093586;28;19908;-71
2023/06/10 13:23:50;;;;;;;;;;;;;;;;;;5093886;28;20007;-71
2023/06/10 13:26:16;;;;;;;;;;;;;;;;;;5092555;28;19931;-71
2023/06/10 13:28:42;;;;;;;;;;;;;;;;;;5093366;28;19947;-71
2023/06/10 13:31:08;;;;;;;;;;;;;;;;;;5093725;28;20406;-71
2023/06/10 13:33:34;;;;;;;;;;;;;;;;;;5093890;28;20214;-71
2023/06/10 13:36:00;;;;;;;;;;;;;;;;;;5093521;28;19973;-71
2023/06/10 13:38:26;;;;;;;;;;;;;;;;;;5093774;28;19912;-71
2023/06/10 13:40:52;;;;;;;;;;;;;;;;;;5093907;28;20276;-71
2023/06/10 13:43:18;;;;;;;;;;;;;;;;;;5091921;28;20280;-71
2023/06/10 13:45:45;;;;;;;;;;;;;;;;;;5093611;28;19916;-71
2023/06/10 13:48:11;;;;;;;;;;;;;;;;;;5093521;28;19912;-71
2023/06/10 13:50:37;;;;;;;;;;;;;;;;;;5093134;28;19954;-70
2023/06/10 13:53:03;;;;;;;;;;;;;;;;;;5093526;28;19974;-69
2023/06/10 13:55:29;;;;;;;;;;;;;;;;;;5093514;28;19912;-69
2023/06/10 13:57:55;;;;;;;;;;;;;;;;;;5093200;28;19959;-69
2023/06/10 14:00:21;;;;;;;;;;;;;;;;;;5093417;28;19915;-70
2023/06/10 14:02:47;;;;;;;;;;;;;;;;;;5096899;28;19912;-69
2023/06/10 14:05:13;;;;;;;;;;;;;;;;;;5097423;28;19914;-70
2023/06/10 14:07:40;;;;;;;;;;;;;;;;;;5096018;28;19908;-70
2023/06/10 14:10:08;;;;;;;;;;;;;;;;;;5097061;28;19908;-70
2023/06/10 14:12:34;;;;;;;;;;;;;;;;;;5097557;28;19914;-70
2023/06/10 14:14:59;;;;;;;;;;;;;;;;;;5096924;28;19920;-70
2023/06/10 14:17:25;;;;;;;;;;;;;;;;;;5096719;28;19912;-70
2023/06/10 14:19:51;;;;;;;;;;;;;;;;;;5097015;28;19908;-70
2023/06/10 14:22:17;;;;;;;;;;;;;;;;;;5096930;28;19961;-69
2023/06/10 14:24:43;;;;;;;;;;;;;;;;;;5096557;28;20276;-70
2023/06/10 14:27:09;;;;;;;;;;;;;;;;;;5096916;28;19908;-70
2023/06/10 14:29:35;;;;;;;;;;;;;;;;;;5096700;28;19913;-70
2023/06/10 14:32:01;;;;;;;;;;;;;;;;;;5096476;28;19943;-69
2023/06/10 14:34:29;;;;;;;;;;;;;;;;;;5096698;28;20007;-69
2023/06/10 14:36:55;;;;;;;;;;;;;;;;;;5096615;28;19912;-70
2023/06/10 14:39:21;;;;;;;;;;;;;;;;;;5096250;28;20129;-70
2023/06/10 14:41:47;;;;;;;;;;;;;;;;;;5096573;28;19916;-70
2023/06/10 14:44:13;;;;;;;;;;;;;;;;;;5096616;28;19916;-70
2023/06/10 14:46:39;;;;;;;;;;;;;;;;;;5096094;28;19908;-70
2023/06/10 14:49:05;;;;;;;;;;;;;;;;;;5096761;28;20372;-70
2023/06/10 14:51:31;;;;;;;;;;;;;;;;;;5096395;28;19942;-70
2023/06/10 14:53:58;;;;;;;;;;;;;;;;;;5095792;28;19916;-70
2023/06/10 14:56:25;;;;;;;;;;;;;;;;;;5095027;28;20118;-69
2023/06/10 14:58:51;;;;;;;;;;;;;;;;;;5096110;28;19951;-70
2023/06/10 15:01:18;;;;;;;;;;;;;;;;;;5096196;28;19946;-70
2023/06/10 15:03:44;;;;;;;;;;;;;;;;;;5096266;28;20017;-70
2023/06/10 15:06:10;;;;;;;;;;;;;;;;;;5095724;28;19951;-70
2023/06/10 15:08:36;;;;;;;;;;;;;;;;;;5096039;28;19958;-70
2023/06/10 15:11:02;;;;;;;;;;;;;;;;;;5095943;28;20287;-70
2023/06/10 15:13:28;;;;;;;;;;;;;;;;;;5095339;28;19920;-70
2023/06/10 15:15:54;;;;;;;;;;;;;;;;;;5096210;28;19922;-70
2023/06/10 15:18:20;;;;;;;;;;;;;;;;;;5095908;28;19909;-70
2023/06/10 15:20:46;;;;;;;;;;;;;;;;;;5095498;28;19908;-70
2023/06/10 15:23:12;;;;;;;;;;;;;;;;;;5095766;28;20279;-70
2023/06/10 15:25:40;;;;;;;;;;;;;;;;;;5095768;28;20344;-70
2023/06/10 15:28:06;;;;;;;;;;;;;;;;;;5095462;28;20287;-70
2023/06/10 15:30:32;;;;;;;;;;;;;;;;;;5095672;28;20376;-70
2023/06/10 15:32:58;;;;;;;;;;;;;;;;;;5095525;28;19951;-70
2023/06/10 15:35:26;;;;;;;;;;;;;;;;;;5095130;28;19912;-70
2023/06/10 15:37:52;;;;;;;;;;;;;;;;;;5095436;28;19912;-70
2023/06/10 15:40:18;;;;;;;;;;;;;;;;;;5095412;28;19953;-70
2023/06/10 15:42:43;;;;;;;;;;;;;;;;;;5095029;28;20368;-70
2023/06/10 15:45:09;;;;;;;;;;;;;;;;;;5095381;28;20283;-70
2023/06/10 15:47:35;;;;;;;;;;;;;;;;;;5095327;28;19912;-70
2023/06/10 15:50:01;;;;;;;;;;;;;;;;;;5094877;28;19908;-70
2023/06/10 15:52:27;;;;;;;;;;;;;;;;;;5093931;28;20280;-70
2023/06/10 15:54:53;;;;;;;;;;;;;;;;;;5093863;28;19920;-69
2023/06/10 15:57:19;;;;;;;;;;;;;;;;;;5094842;28;20382;-70
2023/06/10 15:59:45;;;;;;;;;;;;;;;;;;5095226;28;20312;-70
2023/06/10 16:02:12;;;;;;;;;;;;;;;;;;5094567;28;19915;-70
2023/06/10 16:04:38;;;;;;;;;;;;;;;;;;5095019;28;19908;-70
2023/06/10 16:07:04;;;;;;;;;;;;;;;;;;5095186;28;19962;-70
2023/06/10 16:09:30;;;;;;;;;;;;;;;;;;5094503;28;20268;-70
2023/06/10 16:13:46;;;;;;;;;;;;;;;;;;5153091;27;19934;-70
2023/06/10 16:16:12;;;;;;;;;;;;;;;;;;5152900;27;19915;-69
2023/06/10 16:18:38;;;;;;;;;;;;;;;;;;5152818;27;19952;-70
2023/06/10 16:21:05;;;;;;;;;;;;;;;;;;5152759;27;20412;-69
2023/06/10 16:23:31;;;;;;;;;;;;;;;;;;5152476;27;19915;-70
2023/06/10 16:26:29;;;;;;;;;;;;;;;;;;5091535;27;19923;-69
2023/06/10 16:28:55;;;;;;;;;;;;;;;;;;5091333;28;20351;-70
2023/06/10 16:32:26;;;;;;;;;;;;;;;;;;5090940;27;19916;-69
2023/06/10 16:34:51;;;;;;;;;;;;;;;;;;5091228;28;20007;-69
2023/06/10 16:37:17;;;;;;;;;;;;;;;;;;5090821;28;19954;-69
2023/06/10 16:39:44;;;;;;;;;;;;;;;;;;5091426;28;19912;-70
2023/06/10 16:44:19;;;;;;;;;;;;;;;;;;5091380;27;19923;-69
2023/06/10 16:46:45;;;;;;;;;;;;;;;;;;5091331;28;19912;-69
2023/06/10 16:49:10;;;;;;;;;;;;;;;;;;5091115;28;19909;-69
2023/06/10 16:52:12;;;;;;;;;;;;;;;;;;5091410;27;19923;-69
2023/06/10 16:54:39;;;;;;;;;;;;;;;;;;5091822;28;20002;-70
2023/06/10 16:57:55;;;;;;;;;;;;;;;;;;5092046;27;20308;-70
2023/06/10 17:00:21;;;;;;;;;;;;;;;;;;5090889;28;20003;-70
2023/06/10 17:02:47;;;;;;;;;;;;;;;;;;5091283;28;20307;-70
2023/06/10 17:05:13;;;;;;;;;;;;;;;;;;5091193;28;20279;-70
2023/06/10 17:07:39;;;;;;;;;;;;;;;;;;5090762;28;20296;-70
2023/06/10 17:10:19;;;;;;;;;;;;;;;;;;5091453;27;19918;-71
2023/06/10 17:12:46;;;;;;;;;;;;;;;;;;5090887;28;19912;-70
2023/06/10 17:15:12;;;;;;;;;;;;;;;;;;5091209;28;19908;-71
2023/06/10 17:17:38;;;;;;;;;;;;;;;;;;5091211;28;19908;-70
2023/06/10 17:20:04;;;;;;;;;;;;;;;;;;5090654;28;19938;-69
2023/06/10 17:22:50;;;;;;;;;;;;;;;;;;5091724;27;19916;-69
2023/06/10 17:25:15;;;;;;;;;;;;;;;;;;5091420;28;19912;-69
2023/06/10 17:29:38;;;;;;;;;;;;;;;;;;5091491;28;19916;-69
2023/06/10 17:32:04;;;;;;;;;;;;;;;;;;5091467;28;19913;-69
2023/06/10 17:34:30;;;;;;;;;;;;;;;;;;5090818;28;19931;-69
2023/06/10 17:36:56;;;;;;;;;;;;;;;;;;5091224;28;19912;-69
2023/06/10 17:40:39;;;;;;;;;;;;;;;;;;5091398;27;19919;-70
2023/06/10 17:43:05;;;;;;;;;;;;;;;;;;5091708;28;20253;-69
2023/06/10 17:45:31;;;;;;;;;;;;;;;;;;5091187;28;19931;-69
2023/06/10 17:50:23;;;;;;;;;;;;;;;;;;5091466;27;19916;-69
2023/06/10 17:52:48;;;;;;;;;;;;;;;;;;5089938;28;20439;-69
2023/06/10 17:55:15;;;;;;;;;;;;;;;;;;5090829;28;19970;-69
2023/06/10 17:58:01;;;;;;;;;;;;;;;;;;5091615;27;19916;-69
2023/06/10 18:03:45;;;;;;;;;;;;;;;;;;5111422;27;19916;-69
2023/06/10 18:07:50;;;;;;;;;;;;;;;;;;5153233;27;20009;-71
2023/06/10 18:10:16;;;;;;;;;;;;;;;;;;5152624;27;19918;-69
2023/06/10 18:12:42;;;;;;;;;;;;;;;;;;5153188;27;19911;-70
2023/06/10 18:16:36;;;;;;;;;;;;;;;;;;5111799;27;19912;-72
2023/06/10 18:19:53;;;;;;;;;;;;;;;;;;5092008;27;19916;-71
2023/06/10 18:27:20;;;;;;;;;;;;;;;;;;5152832;27;20379;-72
2023/06/10 18:29:46;;;;;;;;;;;;;;;;;;5152839;27;19916;-72
2023/06/10 18:32:12;;;;;;;;;;;;;;;;;;5152273;27;20324;-70
2023/06/10 18:34:38;;;;;;;;;;;;;;;;;;5152781;27;20278;-70
2023/06/10 18:37:04;;;;;;;;;;;;;;;;;;5152174;27;19911;-69
2023/06/10 18:39:30;;;;;;;;;;;;;;;;;;5152567;27;19938;-71
2023/06/10 18:41:56;;;;;;;;;;;;;;;;;;5152403;27;19997;-71
2023/06/10 18:46:30;;;;;;;;;;;;;;;;;;5153464;27;20349;-70
2023/06/10 18:48:56;;;;;;;;;;;;;;;;;;5152917;27;19946;-69
2023/06/10 18:51:58;;;;;;;;;;;;;;;;;;5070769;28;20394;-70
2023/06/10 18:54:24;;;;;;;;;;;;;;;;;;5071222;28;19913;-70
2023/06/10 19:00:17;;;;;;;;;;;;;;;;;;5090933;27;20394;-70
2023/06/10 19:03:47;;;;;;;;;;;;;;;;;;5092203;27;19916;-69
2023/06/10 19:06:13;;;;;;;;;;;;;;;;;;5091066;28;19965;-71
2023/06/10 19:10:54;;;;;;;;;;;;;;;;;;5091999;27;20277;-71
2023/06/10 19:14:07;;;;;;;;;;;;;;;;;;5090984;27;20414;-70
2023/06/10 19:18:51;;;;;;;;;;;;;;;;;;5153177;27;20454;-69
2023/06/10 19:21:17;;;;;;;;;;;;;;;;;;5152465;27;19993;-69
2023/06/10 19:25:01;;;;;;;;;;;;;;;;;;5153323;27;19923;-70